Fairbanks, AK

1:33 AM AKDT on August 20, 2014 (GMT -0800)
Fairbanks International | Change Station
CLOSE
Current Station
Airport
Location: Fairbanks,
Elevation: 433 ft
Nearby Weather Stations

Elev 433 ft 64.80 °N, 147.88 °W | Updated 40 minutes ago

Scattered Clouds
Scattered Clouds
52 °F
Feels Like 52 °F
N
0
Wind Variable Wind from North

Today
High -- | Low -- °F
--% Chance of Precip.
Yesterday
High -- | Low -- °F
Precip. -- in
5:54 AM 9:52 PM
Waning Crescent, 23% visible
Pressure 30.01 in
Visibility 10.0 miles
Clouds Scattered Clouds 9000 ft
Dew Point 48 °F
Humidity 86%
Rainfall 0.00 in
Snow Depth Not available.
UV 0 out of 12
Pollen Not available.
Air Quality Not available.
Flu Activity Not available.
METAR PAFA 200853Z 00000KT 10SM SCT090 11/09 A3000 RMK AO2 SLP163 T01110089 402000100 51010

More Conditions Fewer Conditions

Pressure 30.01 in
Visibility 10.0 miles
Clouds Scattered Clouds 9000 ft
Dew Point 48 °F
Humidity 86%
Rainfall 0.00 in
Snow Depth Not available.
UV 0 out of 12
Pollen Not available.
Air Quality Not available.
Flu Activity Not available.
METAR PAFA 200853Z 00000KT 10SM SCT090 11/09 A3000 RMK AO2 SLP163 T01110089 402000100 51010

More Conditions Fewer Conditions

10-Day Weather Forecast

Almanac

Astronomy

Aug. 20, 2014 Rise Set
Actual Time 5:54 AM AKDT 9:52 PM AKDT
Civil Twilight 4:51 AM AKDT 10:54 PM AKDT
Nautical Twilight 2:53 AM AKDT 12:45 AM AKDT
Astronomical Twilight Sun does not rise Sun does not rise
Moon 12:54 AM AKDT 7:28 PM AKDT
Length of Visible Light 18h 03m
Length of Day
15h 57m
Tomorrow will be 6m 50s shorter.
Waning Crescent, 23% of the Moon is Illuminated
Today
Waning Crescent
Aug 25
New
Sep 2
First Quarter
Sep 8
Full
Sep 15
Last Quarter

Today's Extremes

State Highs State Lows

Community

WunderPhotos

Upload Photos

1,745,604 photos uploaded!

Nearby

Snow Depth

Station Depth Elevation
Little Chena Ridge 1 in 2000 ft
Munson Ridge 1 in 3100 ft
Eagle Summit 0 in 3650 ft
Upper Chena 1 in 2850 ft
Granite Creek 0 in 1240 ft

Earthquake Activity

City Distance Mag. Time & Date
No recent earthquake activity has been reported nearby.
Minimum magnitude displayed is 2.5.

Coastal Water Temperatures

Place Temperature
No Stations Reporting

Nearby Weather Stations